sensor_id;sensor_type;location;lat;lon;timestamp;temperature;humidity
26803;DHT22;14378;51.796;5.808;2023-05-20T00:05:48;14.50;98.40
26803;DHT22;14378;51.796;5.808;2023-05-20T00:07:53;14.50;98.40
26803;DHT22;14378;51.796;5.808;2023-05-20T00:09:54;14.50;98.50
26803;DHT22;14378;51.796;5.808;2023-05-20T00:11:56;14.50;98.50
26803;DHT22;14378;51.796;5.808;2023-05-20T00:13:58;14.40;98.40
26803;DHT22;14378;51.796;5.808;2023-05-20T00:16:02;14.40;98.50
26803;DHT22;14378;51.796;5.808;2023-05-20T00:18:03;14.40;98.60
26803;DHT22;14378;51.796;5.808;2023-05-20T00:20:05;14.40;98.70
26803;DHT22;14378;51.796;5.808;2023-05-20T00:22:06;14.40;98.80
26803;DHT22;14378;51.796;5.808;2023-05-20T00:24:07;14.30;98.90
26803;DHT22;14378;51.796;5.808;2023-05-20T00:26:08;14.30;99.00
26803;DHT22;14378;51.796;5.808;2023-05-20T00:28:10;14.30;98.90
26803;DHT22;14378;51.796;5.808;2023-05-20T00:30:11;14.30;99.10
26803;DHT22;14378;51.796;5.808;2023-05-20T00:32:12;14.20;99.10
26803;DHT22;14378;51.796;5.808;2023-05-20T00:34:14;14.20;99.10
26803;DHT22;14378;51.796;5.808;2023-05-20T00:36:14;14.20;99.20
26803;DHT22;14378;51.796;5.808;2023-05-20T00:38:15;14.10;99.40
26803;DHT22;14378;51.796;5.808;2023-05-20T00:40:22;14.10;99.40
26803;DHT22;14378;51.796;5.808;2023-05-20T00:42:26;14.10;99.30
26803;DHT22;14378;51.796;5.808;2023-05-20T00:44:31;14.10;99.30
26803;DHT22;14378;51.796;5.808;2023-05-20T00:46:33;14.10;99.40
26803;DHT22;14378;51.796;5.808;2023-05-20T00:48:44;14.10;99.60
26803;DHT22;14378;51.796;5.808;2023-05-20T00:50:46;14.10;99.60
26803;DHT22;14378;51.796;5.808;2023-05-20T00:52:47;14.10;99.50
26803;DHT22;14378;51.796;5.808;2023-05-20T00:54:53;14.00;99.60
26803;DHT22;14378;51.796;5.808;2023-05-20T00:56:56;14.00;99.60
26803;DHT22;14378;51.796;5.808;2023-05-20T00:59:00;14.00;99.70
26803;DHT22;14378;51.796;5.808;2023-05-20T01:01:02;14.00;99.70
26803;DHT22;14378;51.796;5.808;2023-05-20T01:03:03;14.00;99.70
26803;DHT22;14378;51.796;5.808;2023-05-20T01:05:05;14.00;99.90
26803;DHT22;14378;51.796;5.808;2023-05-20T01:07:07;14.00;99.80
26803;DHT22;14378;51.796;5.808;2023-05-20T01:09:08;13.90;99.80
26803;DHT22;14378;51.796;5.808;2023-05-20T01:11:18;13.90;99.90
26803;DHT22;14378;51.796;5.808;2023-05-20T01:13:24;13.90;99.90
26803;DHT22;14378;51.796;5.808;2023-05-20T01:15:28;13.90;99.90
26803;DHT22;14378;51.796;5.808;2023-05-20T01:17:31;13.90;99.90
26803;DHT22;14378;51.796;5.808;2023-05-20T01:19:41;13.90;99.90
26803;DHT22;14378;51.796;5.808;2023-05-20T01:21:45;13.90;99.90
26803;DHT22;14378;51.796;5.808;2023-05-20T01:23:46;13.80;99.90
26803;DHT22;14378;51.796;5.808;2023-05-20T01:25:48;13.80;99.90
26803;DHT22;14378;51.796;5.808;2023-05-20T01:27:50;13.90;99.90
26803;DHT22;14378;51.796;5.808;2023-05-20T01:29:53;13.80;99.90
26803;DHT22;14378;51.796;5.808;2023-05-20T01:31:56;13.80;99.90
26803;DHT22;14378;51.796;5.808;2023-05-20T01:33:59;13.80;99.90
26803;DHT22;14378;51.796;5.808;2023-05-20T01:36:03;13.80;99.90
26803;DHT22;14378;51.796;5.808;2023-05-20T01:38:08;13.80;99.90
26803;DHT22;14378;51.796;5.808;2023-05-20T01:40:12;13.80;99.90
26803;DHT22;14378;51.796;5.808;2023-05-20T01:42:15;13.80;99.90
26803;DHT22;14378;51.796;5.808;2023-05-20T01:44:36;13.90;99.90
26803;DHT22;14378;51.796;5.808;2023-05-20T01:46:38;13.80;99.90
26803;DHT22;14378;51.796;5.808;2023-05-20T01:48:39;13.80;99.90
26803;DHT22;14378;51.796;5.808;2023-05-20T01:50:40;13.90;99.90
26803;DHT22;14378;51.796;5.808;2023-05-20T01:52:42;13.90;99.90
26803;DHT22;14378;51.796;5.808;2023-05-20T01:54:43;13.80;99.90
26803;DHT22;14378;51.796;5.808;2023-05-20T01:56:51;13.80;99.90
26803;DHT22;14378;51.796;5.808;2023-05-20T01:58:52;13.80;99.90
26803;DHT22;14378;51.796;5.808;2023-05-20T02:00:53;13.80;99.90
26803;DHT22;14378;51.796;5.808;2023-05-20T02:02:54;13.80;99.90
26803;DHT22;14378;51.796;5.808;2023-05-20T02:04:55;13.80;99.90
26803;DHT22;14378;51.796;5.808;2023-05-20T02:06:57;13.80;99.90
26803;DHT22;14378;51.796;5.808;2023-05-20T02:08:58;13.80;99.90
26803;DHT22;14378;51.796;5.808;2023-05-20T02:11:02;13.80;99.90
26803;DHT22;14378;51.796;5.808;2023-05-20T02:13:06;13.80;99.90
26803;DHT22;14378;51.796;5.808;2023-05-20T02:15:08;13.70;99.90
26803;DHT22;14378;51.796;5.808;2023-05-20T02:17:11;13.70;99.90
26803;DHT22;14378;51.796;5.808;2023-05-20T02:19:18;13.70;99.90
26803;DHT22;14378;51.796;5.808;2023-05-20T02:21:25;13.70;99.90
26803;DHT22;14378;51.796;5.808;2023-05-20T02:23:27;13.70;99.90
26803;DHT22;14378;51.796;5.808;2023-05-20T02:25:28;13.70;99.90
26803;DHT22;14378;51.796;5.808;2023-05-20T02:27:32;13.70;99.90
26803;DHT22;14378;51.796;5.808;2023-05-20T02:29:34;13.70;99.90
26803;DHT22;14378;51.796;5.808;2023-05-20T02:31:35;13.70;99.90
26803;DHT22;14378;51.796;5.808;2023-05-20T02:33:37;13.70;99.90
26803;DHT22;14378;51.796;5.808;2023-05-20T02:35:37;13.70;99.90
26803;DHT22;14378;51.796;5.808;2023-05-20T02:37:38;13.70;99.90
26803;DHT22;14378;51.796;5.808;2023-05-20T02:39:40;13.70;99.90
26803;DHT22;14378;51.796;5.808;2023-05-20T02:41:41;13.60;99.90
26803;DHT22;14378;51.796;5.808;2023-05-20T02:43:43;13.60;99.90
26803;DHT22;14378;51.796;5.808;2023-05-20T02:45:44;13.60;99.90
26803;DHT22;14378;51.796;5.808;2023-05-20T02:47:54;13.60;99.90
26803;DHT22;14378;51.796;5.808;2023-05-20T02:49:58;13.60;99.90
26803;DHT22;14378;51.796;5.808;2023-05-20T02:51:59;13.60;99.90
26803;DHT22;14378;51.796;5.808;2023-05-20T02:54:00;13.50;99.90
26803;DHT22;14378;51.796;5.808;2023-05-20T02:56:02;13.60;99.90
26803;DHT22;14378;51.796;5.808;2023-05-20T02:58:04;13.50;99.90
26803;DHT22;14378;51.796;5.808;2023-05-20T03:00:08;13.50;99.90
26803;DHT22;14378;51.796;5.808;2023-05-20T03:02:16;13.40;99.90
26803;DHT22;14378;51.796;5.808;2023-05-20T03:04:17;13.50;99.90
26803;DHT22;14378;51.796;5.808;2023-05-20T03:06:18;13.50;99.90
26803;DHT22;14378;51.796;5.808;2023-05-20T03:08:23;13.40;99.90
26803;DHT22;14378;51.796;5.808;2023-05-20T03:10:24;13.40;99.90
26803;DHT22;14378;51.796;5.808;2023-05-20T03:12:25;13.40;99.90
26803;DHT22;14378;51.796;5.808;2023-05-20T03:14:26;13.40;99.90
26803;DHT22;14378;51.796;5.808;2023-05-20T03:16:27;13.40;99.90
26803;DHT22;14378;51.796;5.808;2023-05-20T03:18:28;13.40;99.90
26803;DHT22;14378;51.796;5.808;2023-05-20T03:20:30;13.30;99.90
26803;DHT22;14378;51.796;5.808;2023-05-20T03:22:33;13.30;99.90
26803;DHT22;14378;51.796;5.808;2023-05-20T03:24:34;13.30;99.90
26803;DHT22;14378;51.796;5.808;2023-05-20T03:26:35;13.30;99.90
26803;DHT22;14378;51.796;5.808;2023-05-20T03:28:38;13.30;99.90
26803;DHT22;14378;51.796;5.808;2023-05-20T03:30:52;13.30;99.90
26803;DHT22;14378;51.796;5.808;2023-05-20T03:32:57;13.30;99.90
26803;DHT22;14378;51.796;5.808;2023-05-20T03:34:58;13.30;99.90
26803;DHT22;14378;51.796;5.808;2023-05-20T03:37:00;13.20;99.90
26803;DHT22;14378;51.796;5.808;2023-05-20T03:39:01;13.20;99.90
26803;DHT22;14378;51.796;5.808;2023-05-20T03:41:05;13.20;99.90
26803;DHT22;14378;51.796;5.808;2023-05-20T03:43:09;13.20;99.90
26803;DHT22;14378;51.796;5.808;2023-05-20T03:45:11;13.20;99.90
26803;DHT22;14378;51.796;5.808;2023-05-20T03:47:28;13.10;99.90
26803;DHT22;14378;51.796;5.808;2023-05-20T03:49:29;13.10;99.90
26803;DHT22;14378;51.796;5.808;2023-05-20T03:51:30;13.10;99.90
26803;DHT22;14378;51.796;5.808;2023-05-20T03:53:38;13.10;99.90
26803;DHT22;14378;51.796;5.808;2023-05-20T03:55:40;13.10;99.90
26803;DHT22;14378;51.796;5.808;2023-05-20T03:57:45;13.10;99.90
26803;DHT22;14378;51.796;5.808;2023-05-20T03:59:46;13.10;99.90
26803;DHT22;14378;51.796;5.808;2023-05-20T04:01:48;13.10;99.90
26803;DHT22;14378;51.796;5.808;2023-05-20T04:03:52;13.00;99.90
26803;DHT22;14378;51.796;5.808;2023-05-20T04:05:53;13.00;99.90
26803;DHT22;14378;51.796;5.808;2023-05-20T04:07:56;13.00;99.90
26803;DHT22;14378;51.796;5.808;2023-05-20T04:09:58;13.00;99.90
26803;DHT22;14378;51.796;5.808;2023-05-20T04:11:59;13.00;99.90
26803;DHT22;14378;51.796;5.808;2023-05-20T04:14:01;13.00;99.90
26803;DHT22;14378;51.796;5.808;2023-05-20T04:16:03;13.00;99.90
26803;DHT22;14378;51.796;5.808;2023-05-20T04:18:05;12.90;99.90
26803;DHT22;14378;51.796;5.808;2023-05-20T04:20:07;13.00;99.90
26803;DHT22;14378;51.796;5.808;2023-05-20T04:22:10;12.90;99.90
26803;DHT22;14378;51.796;5.808;2023-05-20T04:24:12;12.90;99.90
26803;DHT22;14378;51.796;5.808;2023-05-20T04:26:13;12.90;99.90
26803;DHT22;14378;51.796;5.808;2023-05-20T04:28:17;12.90;99.90
26803;DHT22;14378;51.796;5.808;2023-05-20T04:30:18;12.90;99.90
26803;DHT22;14378;51.796;5.808;2023-05-20T04:32:20;12.90;99.90
26803;DHT22;14378;51.796;5.808;2023-05-20T04:34:22;12.90;99.90
26803;DHT22;14378;51.796;5.808;2023-05-20T04:36:26;12.90;99.90
26803;DHT22;14378;51.796;5.808;2023-05-20T04:38:29;12.90;99.90
26803;DHT22;14378;51.796;5.808;2023-05-20T04:40:31;12.90;99.90
26803;DHT22;14378;51.796;5.808;2023-05-20T04:42:32;12.90;99.90
26803;DHT22;14378;51.796;5.808;2023-05-20T04:44:37;12.90;99.90
26803;DHT22;14378;51.796;5.808;2023-05-20T04:46:39;12.90;99.90
26803;DHT22;14378;51.796;5.808;2023-05-20T04:48:41;12.90;99.90
26803;DHT22;14378;51.796;5.808;2023-05-20T04:50:48;12.90;99.90
26803;DHT22;14378;51.796;5.808;2023-05-20T04:52:51;13.00;99.90
26803;DHT22;14378;51.796;5.808;2023-05-20T04:54:52;13.00;99.90
26803;DHT22;14378;51.796;5.808;2023-05-20T04:56:59;13.00;99.90
26803;DHT22;14378;51.796;5.808;2023-05-20T04:59:01;13.00;99.90
26803;DHT22;14378;51.796;5.808;2023-05-20T05:01:03;13.00;99.90
26803;DHT22;14378;51.796;5.808;2023-05-20T05:03:04;13.00;99.90
26803;DHT22;14378;51.796;5.808;2023-05-20T05:05:06;13.00;99.90
26803;DHT22;14378;51.796;5.808;2023-05-20T05:07:08;13.00;99.90
26803;DHT22;14378;51.796;5.808;2023-05-20T05:09:08;13.00;99.90
26803;DHT22;14378;51.796;5.808;2023-05-20T05:11:12;13.00;99.90
26803;DHT22;14378;51.796;5.808;2023-05-20T05:13:13;13.00;99.90
26803;DHT22;14378;51.796;5.808;2023-05-20T05:15:15;13.10;99.90
26803;DHT22;14378;51.796;5.808;2023-05-20T05:17:17;13.10;99.90
26803;DHT22;14378;51.796;5.808;2023-05-20T05:19:18;13.10;99.90
26803;DHT22;14378;51.796;5.808;2023-05-20T05:21:21;13.10;99.90
26803;DHT22;14378;51.796;5.808;2023-05-20T05:23:22;13.10;99.90
26803;DHT22;14378;51.796;5.808;2023-05-20T05:25:23;13.20;99.90
26803;DHT22;14378;51.796;5.808;2023-05-20T05:27:24;13.20;99.90
26803;DHT22;14378;51.796;5.808;2023-05-20T05:29:25;13.20;99.90
26803;DHT22;14378;51.796;5.808;2023-05-20T05:31:27;13.20;99.90
26803;DHT22;14378;51.796;5.808;2023-05-20T05:33:31;13.20;99.90
26803;DHT22;14378;51.796;5.808;2023-05-20T05:35:33;13.30;99.90
26803;DHT22;14378;51.796;5.808;2023-05-20T05:37:35;13.30;99.90
26803;DHT22;14378;51.796;5.808;2023-05-20T05:39:36;13.40;99.90
26803;DHT22;14378;51.796;5.808;2023-05-20T05:41:38;13.40;99.90
26803;DHT22;14378;51.796;5.808;2023-05-20T05:43:38;13.40;99.90
26803;DHT22;14378;51.796;5.808;2023-05-20T05:45:41;13.40;99.90
26803;DHT22;14378;51.796;5.808;2023-05-20T05:47:42;13.40;99.90
26803;DHT22;14378;51.796;5.808;2023-05-20T05:49:43;13.40;99.90
26803;DHT22;14378;51.796;5.808;2023-05-20T05:51:45;13.50;99.90
26803;DHT22;14378;51.796;5.808;2023-05-20T05:53:47;13.50;99.90
26803;DHT22;14378;51.796;5.808;2023-05-20T05:55:51;13.50;99.90
26803;DHT22;14378;51.796;5.808;2023-05-20T05:57:54;13.60;99.90
26803;DHT22;14378;51.796;5.808;2023-05-20T05:59:56;13.60;99.90
26803;DHT22;14378;51.796;5.808;2023-05-20T06:01:57;13.70;99.90
26803;DHT22;14378;51.796;5.808;2023-05-20T06:03:58;13.70;99.90
26803;DHT22;14378;51.796;5.808;2023-05-20T06:06:03;13.80;99.90
26803;DHT22;14378;51.796;5.808;2023-05-20T06:08:04;13.80;99.90
26803;DHT22;14378;51.796;5.808;2023-05-20T06:10:08;13.90;99.90
26803;DHT22;14378;51.796;5.808;2023-05-20T06:12:09;14.00;99.90
26803;DHT22;14378;51.796;5.808;2023-05-20T06:14:10;14.00;99.90
26803;DHT22;14378;51.796;5.808;2023-05-20T06:16:11;14.10;99.90
26803;DHT22;14378;51.796;5.808;2023-05-20T06:18:13;14.20;99.90
26803;DHT22;14378;51.796;5.808;2023-05-20T06:20:14;14.20;99.90
26803;DHT22;14378;51.796;5.808;2023-05-20T06:22:15;14.30;99.90
26803;DHT22;14378;51.796;5.808;2023-05-20T06:24:16;14.40;99.90
26803;DHT22;14378;51.796;5.808;2023-05-20T06:26:17;14.50;99.90
26803;DHT22;14378;51.796;5.808;2023-05-20T06:28:20;14.60;99.90
26803;DHT22;14378;51.796;5.808;2023-05-20T06:30:21;14.70;99.90
26803;DHT22;14378;51.796;5.808;2023-05-20T06:32:22;14.80;99.90
26803;DHT22;14378;51.796;5.808;2023-05-20T06:34:28;14.90;99.90
26803;DHT22;14378;51.796;5.808;2023-05-20T06:36:34;14.90;99.90
26803;DHT22;14378;51.796;5.808;2023-05-20T06:38:40;15.00;99.90
26803;DHT22;14378;51.796;5.808;2023-05-20T06:40:41;15.10;99.90
26803;DHT22;14378;51.796;5.808;2023-05-20T06:42:42;15.30;99.90
26803;DHT22;14378;51.796;5.808;2023-05-20T06:44:43;15.40;99.90
26803;DHT22;14378;51.796;5.808;2023-05-20T06:47:07;15.40;99.90
26803;DHT22;14378;51.796;5.808;2023-05-20T06:49:10;15.60;99.90
26803;DHT22;14378;51.796;5.808;2023-05-20T06:51:11;15.60;99.90
26803;DHT22;14378;51.796;5.808;2023-05-20T06:53:13;15.70;99.90
26803;DHT22;14378;51.796;5.808;2023-05-20T06:55:14;15.80;99.90
26803;DHT22;14378;51.796;5.808;2023-05-20T06:57:18;15.90;99.90
26803;DHT22;14378;51.796;5.808;2023-05-20T06:59:22;16.00;99.90
26803;DHT22;14378;51.796;5.808;2023-05-20T07:01:23;16.10;99.90
26803;DHT22;14378;51.796;5.808;2023-05-20T07:03:25;16.30;99.90
26803;DHT22;14378;51.796;5.808;2023-05-20T07:05:26;16.40;99.90
26803;DHT22;14378;51.796;5.808;2023-05-20T07:07:28;16.50;99.90
26803;DHT22;14378;51.796;5.808;2023-05-20T07:09:33;16.60;99.90
26803;DHT22;14378;51.796;5.808;2023-05-20T07:11:35;16.70;99.90
26803;DHT22;14378;51.796;5.808;2023-05-20T07:13:36;16.80;99.90
26803;DHT22;14378;51.796;5.808;2023-05-20T07:15:39;16.90;99.90
26803;DHT22;14378;51.796;5.808;2023-05-20T07:17:40;17.00;99.90
26803;DHT22;14378;51.796;5.808;2023-05-20T07:19:41;17.00;99.90
26803;DHT22;14378;51.796;5.808;2023-05-20T07:21:42;17.00;99.90
26803;DHT22;14378;51.796;5.808;2023-05-20T07:23:56;17.20;99.90
26803;DHT22;14378;51.796;5.808;2023-05-20T07:25:59;17.30;99.90
26803;DHT22;14378;51.796;5.808;2023-05-20T07:28:00;17.40;99.90
26803;DHT22;14378;51.796;5.808;2023-05-20T07:30:01;17.60;99.90
26803;DHT22;14378;51.796;5.808;2023-05-20T07:32:08;17.70;99.90
26803;DHT22;14378;51.796;5.808;2023-05-20T07:34:11;17.70;99.90
26803;DHT22;14378;51.796;5.808;2023-05-20T07:36:14;17.80;99.90
26803;DHT22;14378;51.796;5.808;2023-05-20T07:38:17;17.90;99.90
26803;DHT22;14378;51.796;5.808;2023-05-20T07:40:24;18.00;99.70
26803;DHT22;14378;51.796;5.808;2023-05-20T07:42:25;18.10;99.50
26803;DHT22;14378;51.796;5.808;2023-05-20T07:44:32;18.20;99.70
26803;DHT22;14378;51.796;5.808;2023-05-20T07:46:33;18.40;99.80
26803;DHT22;14378;51.796;5.808;2023-05-20T07:48:34;18.50;99.50
26803;DHT22;14378;51.796;5.808;2023-05-20T07:50:37;18.70;99.20
26803;DHT22;14378;51.796;5.808;2023-05-20T07:52:40;18.70;99.00
26803;DHT22;14378;51.796;5.808;2023-05-20T07:54:41;18.80;98.90
26803;DHT22;14378;51.796;5.808;2023-05-20T07:56:48;19.00;98.80
26803;DHT22;14378;51.796;5.808;2023-05-20T07:58:56;19.10;98.40
26803;DHT22;14378;51.796;5.808;2023-05-20T08:01:00;19.20;98.70
26803;DHT22;14378;51.796;5.808;2023-05-20T08:03:04;19.30;97.90
26803;DHT22;14378;51.796;5.808;2023-05-20T08:05:08;19.40;97.60
26803;DHT22;14378;51.796;5.808;2023-05-20T08:07:09;19.50;98.00
26803;DHT22;14378;51.796;5.808;2023-05-20T08:09:26;19.60;97.90
26803;DHT22;14378;51.796;5.808;2023-05-20T08:11:30;19.70;97.50
26803;DHT22;14378;51.796;5.808;2023-05-20T08:13:31;19.80;96.80
26803;DHT22;14378;51.796;5.808;2023-05-20T08:15:34;19.80;96.50
26803;DHT22;14378;51.796;5.808;2023-05-20T08:17:35;19.90;96.30
26803;DHT22;14378;51.796;5.808;2023-05-20T08:19:40;19.90;96.00
26803;DHT22;14378;51.796;5.808;2023-05-20T08:21:42;20.00;96.00
26803;DHT22;14378;51.796;5.808;2023-05-20T08:23:46;20.10;95.80
26803;DHT22;14378;51.796;5.808;2023-05-20T08:25:47;20.10;95.40
26803;DHT22;14378;51.796;5.808;2023-05-20T08:27:51;20.10;95.10
26803;DHT22;14378;51.796;5.808;2023-05-20T08:29:53;20.10;95.10
26803;DHT22;14378;51.796;5.808;2023-05-20T08:31:54;20.20;95.00
26803;DHT22;14378;51.796;5.808;2023-05-20T08:33:56;20.20;95.10
26803;DHT22;14378;51.796;5.808;2023-05-20T08:35:57;20.30;95.40
26803;DHT22;14378;51.796;5.808;2023-05-20T08:37:59;20.40;94.70
26803;DHT22;14378;51.796;5.808;2023-05-20T08:40:02;20.50;95.00
26803;DHT22;14378;51.796;5.808;2023-05-20T08:42:05;20.70;94.90
26803;DHT22;14378;51.796;5.808;2023-05-20T08:44:08;20.80;96.30
26803;DHT22;14378;51.796;5.808;2023-05-20T08:46:23;21.00;95.20
26803;DHT22;14378;51.796;5.808;2023-05-20T08:48:25;21.20;94.60
26803;DHT22;14378;51.796;5.808;2023-05-20T08:50:27;21.30;94.20
26803;DHT22;14378;51.796;5.808;2023-05-20T08:52:30;21.40;94.10
26803;DHT22;14378;51.796;5.808;2023-05-20T08:54:45;21.50;93.70
26803;DHT22;14378;51.796;5.808;2023-05-20T08:56:46;21.60;92.90
26803;DHT22;14378;51.796;5.808;2023-05-20T08:58:48;21.70;93.10
26803;DHT22;14378;51.796;5.808;2023-05-20T09:00:51;21.70;93.00
26803;DHT22;14378;51.796;5.808;2023-05-20T09:02:52;21.90;93.30
26803;DHT22;14378;51.796;5.808;2023-05-20T09:04:55;22.00;93.10
26803;DHT22;14378;51.796;5.808;2023-05-20T09:06:57;22.20;92.90
26803;DHT22;14378;51.796;5.808;2023-05-20T09:08:59;22.20;92.50
26803;DHT22;14378;51.796;5.808;2023-05-20T09:11:00;22.30;92.70
26803;DHT22;14378;51.796;5.808;2023-05-20T09:13:02;22.30;92.00
26803;DHT22;14378;51.796;5.808;2023-05-20T09:15:04;22.40;91.90
26803;DHT22;14378;51.796;5.808;2023-05-20T09:17:05;22.50;92.50
26803;DHT22;14378;51.796;5.808;2023-05-20T09:19:09;22.70;92.80
26803;DHT22;14378;51.796;5.808;2023-05-20T09:21:15;22.80;92.10
26803;DHT22;14378;51.796;5.808;2023-05-20T09:23:18;22.80;91.60
26803;DHT22;14378;51.796;5.808;2023-05-20T09:25:25;22.70;91.00
26803;DHT22;14378;51.796;5.808;2023-05-20T09:27:25;22.80;91.30
26803;DHT22;14378;51.796;5.808;2023-05-20T09:29:27;22.90;91.50
26803;DHT22;14378;51.796;5.808;2023-05-20T09:31:30;22.90;91.50
26803;DHT22;14378;51.796;5.808;2023-05-20T09:33:33;23.10;91.20
26803;DHT22;14378;51.796;5.808;2023-05-20T09:35:36;23.20;91.30
26803;DHT22;14378;51.796;5.808;2023-05-20T09:37:38;23.40;92.00
26803;DHT22;14378;51.796;5.808;2023-05-20T09:40:02;23.60;90.90
26803;DHT22;14378;51.796;5.808;2023-05-20T09:42:14;23.60;90.90
26803;DHT22;14378;51.796;5.808;2023-05-20T09:44:17;23.80;91.10
26803;DHT22;14378;51.796;5.808;2023-05-20T09:46:22;24.00;91.70
26803;DHT22;14378;51.796;5.808;2023-05-20T09:48:26;24.00;89.90
26803;DHT22;14378;51.796;5.808;2023-05-20T09:50:28;24.10;90.70
26803;DHT22;14378;51.796;5.808;2023-05-20T09:52:30;24.30;91.00
26803;DHT22;14378;51.796;5.808;2023-05-20T09:54:31;24.40;90.30
26803;DHT22;14378;51.796;5.808;2023-05-20T09:56:34;24.40;89.80
26803;DHT22;14378;51.796;5.808;2023-05-20T09:58:37;24.30;89.30
26803;DHT22;14378;51.796;5.808;2023-05-20T10:00:38;24.30;89.10
26803;DHT22;14378;51.796;5.808;2023-05-20T10:02:52;24.30;88.30
26803;DHT22;14378;51.796;5.808;2023-05-20T10:04:54;24.30;88.80
26803;DHT22;14378;51.796;5.808;2023-05-20T10:07:13;24.40;89.20
26803;DHT22;14378;51.796;5.808;2023-05-20T10:09:31;24.40;89.50
26803;DHT22;14378;51.796;5.808;2023-05-20T10:16:29;25.00;90.40
26803;DHT22;14378;51.796;5.808;2023-05-20T10:21:19;25.20;88.20
26803;DHT22;14378;51.796;5.808;2023-05-20T10:23:29;25.20;87.30
26803;DHT22;14378;51.796;5.808;2023-05-20T10:25:31;25.30;88.00
26803;DHT22;14378;51.796;5.808;2023-05-20T10:27:45;25.40;88.60
26803;DHT22;14378;51.796;5.808;2023-05-20T10:29:53;25.50;87.70
26803;DHT22;14378;51.796;5.808;2023-05-20T10:31:54;25.60;87.30
26803;DHT22;14378;51.796;5.808;2023-05-20T10:33:58;25.60;87.30
26803;DHT22;14378;51.796;5.808;2023-05-20T10:36:02;25.60;87.30
26803;DHT22;14378;51.796;5.808;2023-05-20T10:38:10;25.70;88.80
26803;DHT22;14378;51.796;5.808;2023-05-20T10:40:17;25.70;90.00
26803;DHT22;14378;51.796;5.808;2023-05-20T10:42:27;25.80;90.10
26803;DHT22;14378;51.796;5.808;2023-05-20T10:44:45;25.80;90.20
26803;DHT22;14378;51.796;5.808;2023-05-20T10:47:01;25.80;89.30
26803;DHT22;14378;51.796;5.808;2023-05-20T10:49:04;25.80;88.90
26803;DHT22;14378;51.796;5.808;2023-05-20T10:51:13;25.80;89.10
26803;DHT22;14378;51.796;5.808;2023-05-20T10:53:14;25.90;89.50
26803;DHT22;14378;51.796;5.808;2023-05-20T10:55:18;25.90;88.80
26803;DHT22;14378;51.796;5.808;2023-05-20T10:57:28;25.90;88.50
26803;DHT22;14378;51.796;5.808;2023-05-20T10:59:30;25.80;88.40
26803;DHT22;14378;51.796;5.808;2023-05-20T11:01:31;25.90;88.60
26803;DHT22;14378;51.796;5.808;2023-05-20T11:03:34;25.90;89.70
26803;DHT22;14378;51.796;5.808;2023-05-20T11:05:35;25.80;89.30
26803;DHT22;14378;51.796;5.808;2023-05-20T11:07:38;25.80;87.80
26803;DHT22;14378;51.796;5.808;2023-05-20T11:09:48;25.80;87.50
26803;DHT22;14378;51.796;5.808;2023-05-20T11:11:52;25.80;88.80
26803;DHT22;14378;51.796;5.808;2023-05-20T11:13:56;25.90;88.60
26803;DHT22;14378;51.796;5.808;2023-05-20T11:16:00;25.90;87.90
26803;DHT22;14378;51.796;5.808;2023-05-20T11:18:02;26.00;87.20
26803;DHT22;14378;51.796;5.808;2023-05-20T11:20:04;26.00;86.90
26803;DHT22;14378;51.796;5.808;2023-05-20T11:22:06;25.90;87.20
26803;DHT22;14378;51.796;5.808;2023-05-20T11:24:08;25.90;86.30
26803;DHT22;14378;51.796;5.808;2023-05-20T11:26:09;25.90;87.20
26803;DHT22;14378;51.796;5.808;2023-05-20T11:28:13;26.00;87.90
26803;DHT22;14378;51.796;5.808;2023-05-20T11:30:16;26.00;87.60
26803;DHT22;14378;51.796;5.808;2023-05-20T11:32:27;26.00;86.60
26803;DHT22;14378;51.796;5.808;2023-05-20T11:34:35;26.00;84.70
26803;DHT22;14378;51.796;5.808;2023-05-20T11:36:41;26.10;86.80
26803;DHT22;14378;51.796;5.808;2023-05-20T11:38:45;26.10;85.80
26803;DHT22;14378;51.796;5.808;2023-05-20T11:40:51;26.00;86.60
26803;DHT22;14378;51.796;5.808;2023-05-20T11:42:57;26.10;86.40
26803;DHT22;14378;51.796;5.808;2023-05-20T11:44:59;26.20;84.60
26803;DHT22;14378;51.796;5.808;2023-05-20T11:47:02;26.10;84.80
26803;DHT22;14378;51.796;5.808;2023-05-20T11:49:03;26.00;84.20
26803;DHT22;14378;51.796;5.808;2023-05-20T11:51:08;25.90;84.80
26803;DHT22;14378;51.796;5.808;2023-05-20T11:53:13;25.90;86.30
26803;DHT22;14378;51.796;5.808;2023-05-20T11:55:14;26.00;85.30
26803;DHT22;14378;51.796;5.808;2023-05-20T11:57:15;25.90;85.60
26803;DHT22;14378;51.796;5.808;2023-05-20T11:59:16;25.70;85.30
26803;DHT22;14378;51.796;5.808;2023-05-20T12:01:17;25.60;85.40
26803;DHT22;14378;51.796;5.808;2023-05-20T12:03:21;25.60;85.50
26803;DHT22;14378;51.796;5.808;2023-05-20T12:05:22;25.70;86.20
26803;DHT22;14378;51.796;5.808;2023-05-20T12:07:23;26.00;87.00
26803;DHT22;14378;51.796;5.808;2023-05-20T12:09:24;26.10;86.70
26803;DHT22;14378;51.796;5.808;2023-05-20T12:11:25;26.10;85.40
26803;DHT22;14378;51.796;5.808;2023-05-20T12:13:26;26.30;85.80
26803;DHT22;14378;51.796;5.808;2023-05-20T12:15:27;26.50;85.80
26803;DHT22;14378;51.796;5.808;2023-05-20T12:17:30;26.60;85.50
26803;DHT22;14378;51.796;5.808;2023-05-20T12:19:34;26.70;85.80
26803;DHT22;14378;51.796;5.808;2023-05-20T12:21:35;26.70;84.50
26803;DHT22;14378;51.796;5.808;2023-05-20T12:23:36;26.70;85.30
26803;DHT22;14378;51.796;5.808;2023-05-20T12:25:37;26.80;86.10
26803;DHT22;14378;51.796;5.808;2023-05-20T12:27:38;26.80;83.10
26803;DHT22;14378;51.796;5.808;2023-05-20T12:29:39;26.70;84.10
26803;DHT22;14378;51.796;5.808;2023-05-20T12:31:43;26.60;83.20
26803;DHT22;14378;51.796;5.808;2023-05-20T12:33:44;26.50;83.30
26803;DHT22;14378;51.796;5.808;2023-05-20T12:35:45;26.60;84.40
26803;DHT22;14378;51.796;5.808;2023-05-20T12:37:46;26.50;83.20
26803;DHT22;14378;51.796;5.808;2023-05-20T12:39:47;26.40;83.90
26803;DHT22;14378;51.796;5.808;2023-05-20T12:41:48;26.40;84.50
26803;DHT22;14378;51.796;5.808;2023-05-20T12:44:00;26.40;84.00
26803;DHT22;14378;51.796;5.808;2023-05-20T12:46:01;26.40;84.90
26803;DHT22;14378;51.796;5.808;2023-05-20T12:48:03;26.40;84.30
26803;DHT22;14378;51.796;5.808;2023-05-20T12:50:15;26.30;83.90
26803;DHT22;14378;51.796;5.808;2023-05-20T12:52:20;26.40;83.90
26803;DHT22;14378;51.796;5.808;2023-05-20T12:54:22;26.40;84.00
26803;DHT22;14378;51.796;5.808;2023-05-20T12:56:23;26.20;82.50
26803;DHT22;14378;51.796;5.808;2023-05-20T12:58:26;26.10;82.90
26803;DHT22;14378;51.796;5.808;2023-05-20T13:00:27;26.00;83.40
26803;DHT22;14378;51.796;5.808;2023-05-20T13:02:28;26.00;84.00
26803;DHT22;14378;51.796;5.808;2023-05-20T13:04:30;25.90;84.20
26803;DHT22;14378;51.796;5.808;2023-05-20T13:06:35;25.90;83.90
26803;DHT22;14378;51.796;5.808;2023-05-20T13:08:39;25.80;84.00
26803;DHT22;14378;51.796;5.808;2023-05-20T13:10:43;25.80;85.10